sensor_id;sensor_type;location;lat;lon;timestamp;P1;durP1;ratioP1;P2;durP2;ratioP2
14268;SDS011;7218;51.480;7.006;2023-04-25T00:02:21;12.27;;;5.07;;
14268;SDS011;7218;51.480;7.006;2023-04-25T00:04:48;13.32;;;4.95;;
14268;SDS011;7218;51.480;7.006;2023-04-25T00:07:14;13.57;;;5.38;;
14268;SDS011;7218;51.480;7.006;2023-04-25T00:09:41;10.25;;;4.60;;
14268;SDS011;7218;51.480;7.006;2023-04-25T00:12:09;10.95;;;4.80;;
14268;SDS011;7218;51.480;7.006;2023-04-25T00:14:36;12.93;;;4.90;;
14268;SDS011;7218;51.480;7.006;2023-04-25T00:17:02;12.02;;;4.70;;
14268;SDS011;7218;51.480;7.006;2023-04-25T00:19:29;10.70;;;4.55;;
14268;SDS011;7218;51.480;7.006;2023-04-25T00:21:55;10.25;;;4.25;;
14268;SDS011;7218;51.480;7.006;2023-04-25T00:24:22;11.15;;;4.90;;
14268;SDS011;7218;51.480;7.006;2023-04-25T00:26:48;14.38;;;4.63;;
14268;SDS011;7218;51.480;7.006;2023-04-25T00:29:16;9.98;;;4.60;;
14268;SDS011;7218;51.480;7.006;2023-04-25T00:31:43;12.75;;;4.90;;
14268;SDS011;7218;51.480;7.006;2023-04-25T00:34:09;13.80;;;4.88;;
14268;SDS011;7218;51.480;7.006;2023-04-25T00:36:36;13.93;;;5.07;;
14268;SDS011;7218;51.480;7.006;2023-04-25T00:39:03;13.10;;;4.70;;
14268;SDS011;7218;51.480;7.006;2023-04-25T00:41:30;9.23;;;4.60;;
14268;SDS011;7218;51.480;7.006;2023-04-25T00:43:56;9.70;;;4.55;;
14268;SDS011;7218;51.480;7.006;2023-04-25T00:46:25;10.52;;;4.80;;
14268;SDS011;7218;51.480;7.006;2023-04-25T00:48:51;12.32;;;4.30;;
14268;SDS011;7218;51.480;7.006;2023-04-25T00:51:19;11.70;;;4.78;;
14268;SDS011;7218;51.480;7.006;2023-04-25T00:53:47;15.73;;;4.40;;
14268;SDS011;7218;51.480;7.006;2023-04-25T00:56:15;11.20;;;4.63;;
14268;SDS011;7218;51.480;7.006;2023-04-25T00:58:42;13.38;;;4.80;;
14268;SDS011;7218;51.480;7.006;2023-04-25T01:01:08;10.85;;;4.65;;
14268;SDS011;7218;51.480;7.006;2023-04-25T01:03:38;12.60;;;4.95;;
14268;SDS011;7218;51.480;7.006;2023-04-25T01:06:07;14.85;;;4.78;;
14268;SDS011;7218;51.480;7.006;2023-04-25T01:08:34;16.52;;;4.95;;
14268;SDS011;7218;51.480;7.006;2023-04-25T01:11:01;8.68;;;4.68;;
14268;SDS011;7218;51.480;7.006;2023-04-25T01:13:27;9.82;;;4.47;;
14268;SDS011;7218;51.480;7.006;2023-04-25T01:15:54;11.98;;;4.78;;
14268;SDS011;7218;51.480;7.006;2023-04-25T01:18:20;11.15;;;4.63;;
14268;SDS011;7218;51.480;7.006;2023-04-25T01:20:49;12.38;;;5.07;;
14268;SDS011;7218;51.480;7.006;2023-04-25T01:23:18;11.32;;;4.95;;
14268;SDS011;7218;51.480;7.006;2023-04-25T01:25:45;10.20;;;4.97;;
14268;SDS011;7218;51.480;7.006;2023-04-25T01:28:11;12.15;;;5.03;;
14268;SDS011;7218;51.480;7.006;2023-04-25T01:30:38;15.32;;;5.15;;
14268;SDS011;7218;51.480;7.006;2023-04-25T01:33:05;13.35;;;5.35;;
14268;SDS011;7218;51.480;7.006;2023-04-25T01:35:33;13.50;;;5.20;;
14268;SDS011;7218;51.480;7.006;2023-04-25T01:38:00;10.55;;;5.10;;
14268;SDS011;7218;51.480;7.006;2023-04-25T01:40:28;11.48;;;4.95;;
14268;SDS011;7218;51.480;7.006;2023-04-25T01:42:55;13.07;;;5.65;;
14268;SDS011;7218;51.480;7.006;2023-04-25T01:45:21;16.63;;;5.80;;
14268;SDS011;7218;51.480;7.006;2023-04-25T01:47:48;10.90;;;5.28;;
14268;SDS011;7218;51.480;7.006;2023-04-25T01:50:15;12.32;;;4.85;;
14268;SDS011;7218;51.480;7.006;2023-04-25T01:52:43;9.43;;;5.00;;
14268;SDS011;7218;51.480;7.006;2023-04-25T01:55:10;9.55;;;4.90;;
14268;SDS011;7218;51.480;7.006;2023-04-25T01:57:38;14.93;;;5.22;;
14268;SDS011;7218;51.480;7.006;2023-04-25T02:00:05;11.20;;;5.75;;
14268;SDS011;7218;51.480;7.006;2023-04-25T02:02:33;11.40;;;5.28;;
14268;SDS011;7218;51.480;7.006;2023-04-25T02:05:00;10.90;;;5.20;;
14268;SDS011;7218;51.480;7.006;2023-04-25T02:07:26;9.70;;;5.00;;
14268;SDS011;7218;51.480;7.006;2023-04-25T02:09:53;12.23;;;5.88;;
14268;SDS011;7218;51.480;7.006;2023-04-25T02:12:19;9.85;;;4.97;;
14268;SDS011;7218;51.480;7.006;2023-04-25T02:14:47;11.60;;;5.32;;
14268;SDS011;7218;51.480;7.006;2023-04-25T02:17:13;11.88;;;4.93;;
14268;SDS011;7218;51.480;7.006;2023-04-25T02:19:41;13.98;;;5.35;;
14268;SDS011;7218;51.480;7.006;2023-04-25T02:22:07;9.82;;;5.30;;
14268;SDS011;7218;51.480;7.006;2023-04-25T02:24:33;11.50;;;5.45;;
14268;SDS011;7218;51.480;7.006;2023-04-25T02:27:00;15.93;;;5.35;;
14268;SDS011;7218;51.480;7.006;2023-04-25T02:29:26;10.10;;;4.53;;
14268;SDS011;7218;51.480;7.006;2023-04-25T02:31:54;15.70;;;5.63;;
14268;SDS011;7218;51.480;7.006;2023-04-25T02:34:21;10.88;;;4.70;;
14268;SDS011;7218;51.480;7.006;2023-04-25T02:36:47;11.15;;;4.45;;
14268;SDS011;7218;51.480;7.006;2023-04-25T02:39:14;10.85;;;4.40;;
14268;SDS011;7218;51.480;7.006;2023-04-25T02:41:40;13.23;;;4.68;;
14268;SDS011;7218;51.480;7.006;2023-04-25T02:44:07;13.27;;;4.72;;
14268;SDS011;7218;51.480;7.006;2023-04-25T02:46:33;12.30;;;4.50;;
14268;SDS011;7218;51.480;7.006;2023-04-25T02:49:01;13.43;;;4.82;;
14268;SDS011;7218;51.480;7.006;2023-04-25T02:51:28;12.20;;;4.88;;
14268;SDS011;7218;51.480;7.006;2023-04-25T02:53:55;11.75;;;4.53;;
14268;SDS011;7218;51.480;7.006;2023-04-25T02:56:21;13.05;;;5.10;;
14268;SDS011;7218;51.480;7.006;2023-04-25T02:58:48;14.77;;;5.22;;
14268;SDS011;7218;51.480;7.006;2023-04-25T03:01:14;9.57;;;4.47;;
14268;SDS011;7218;51.480;7.006;2023-04-25T03:03:41;11.02;;;4.75;;
14268;SDS011;7218;51.480;7.006;2023-04-25T03:06:08;10.90;;;4.57;;
14268;SDS011;7218;51.480;7.006;2023-04-25T03:08:35;10.48;;;4.40;;
14268;SDS011;7218;51.480;7.006;2023-04-25T03:11:01;16.83;;;5.43;;
14268;SDS011;7218;51.480;7.006;2023-04-25T03:13:28;14.15;;;5.25;;
14268;SDS011;7218;51.480;7.006;2023-04-25T03:15:55;13.30;;;4.70;;
14268;SDS011;7218;51.480;7.006;2023-04-25T03:18:21;10.00;;;4.88;;
14268;SDS011;7218;51.480;7.006;2023-04-25T03:20:47;10.27;;;5.00;;
14268;SDS011;7218;51.480;7.006;2023-04-25T03:23:15;18.13;;;5.50;;
14268;SDS011;7218;51.480;7.006;2023-04-25T03:25:42;10.60;;;5.13;;
14268;SDS011;7218;51.480;7.006;2023-04-25T03:28:08;14.30;;;5.03;;
14268;SDS011;7218;51.480;7.006;2023-04-25T03:30:35;11.50;;;5.30;;
14268;SDS011;7218;51.480;7.006;2023-04-25T03:33:01;9.35;;;5.05;;
14268;SDS011;7218;51.480;7.006;2023-04-25T03:35:28;12.75;;;4.65;;
14268;SDS011;7218;51.480;7.006;2023-04-25T03:37:54;10.95;;;5.28;;
14268;SDS011;7218;51.480;7.006;2023-04-25T03:40:22;10.02;;;4.80;;
14268;SDS011;7218;51.480;7.006;2023-04-25T03:42:48;12.73;;;4.65;;
14268;SDS011;7218;51.480;7.006;2023-04-25T03:45:15;13.35;;;4.60;;
14268;SDS011;7218;51.480;7.006;2023-04-25T03:47:41;12.45;;;4.90;;
14268;SDS011;7218;51.480;7.006;2023-04-25T03:50:08;14.43;;;5.25;;
14268;SDS011;7218;51.480;7.006;2023-04-25T03:52:35;12.48;;;4.43;;
14268;SDS011;7218;51.480;7.006;2023-04-25T03:55:02;14.80;;;4.95;;
14268;SDS011;7218;51.480;7.006;2023-04-25T03:57:31;14.77;;;4.65;;
14268;SDS011;7218;51.480;7.006;2023-04-25T03:59:57;13.13;;;4.75;;
14268;SDS011;7218;51.480;7.006;2023-04-25T04:02:23;14.80;;;5.45;;
14268;SDS011;7218;51.480;7.006;2023-04-25T04:04:50;15.77;;;5.10;;
14268;SDS011;7218;51.480;7.006;2023-04-25T04:07:16;15.40;;;5.18;;
14268;SDS011;7218;51.480;7.006;2023-04-25T04:09:43;13.15;;;5.13;;
14268;SDS011;7218;51.480;7.006;2023-04-25T04:12:09;14.88;;;5.13;;
14268;SDS011;7218;51.480;7.006;2023-04-25T04:14:37;16.35;;;5.70;;
14268;SDS011;7218;51.480;7.006;2023-04-25T04:17:03;15.98;;;5.43;;
14268;SDS011;7218;51.480;7.006;2023-04-25T04:19:31;12.85;;;5.03;;
14268;SDS011;7218;51.480;7.006;2023-04-25T04:21:57;18.63;;;6.28;;
14268;SDS011;7218;51.480;7.006;2023-04-25T04:24:24;13.63;;;5.43;;
14268;SDS011;7218;51.480;7.006;2023-04-25T04:26:50;14.05;;;5.60;;
14268;SDS011;7218;51.480;7.006;2023-04-25T04:29:17;16.05;;;5.13;;
14268;SDS011;7218;51.480;7.006;2023-04-25T04:31:48;13.07;;;6.18;;
14268;SDS011;7218;51.480;7.006;2023-04-25T04:34:15;14.75;;;6.15;;
14268;SDS011;7218;51.480;7.006;2023-04-25T04:36:43;12.80;;;5.47;;
14268;SDS011;7218;51.480;7.006;2023-04-25T04:39:10;16.15;;;6.18;;
14268;SDS011;7218;51.480;7.006;2023-04-25T04:41:36;17.52;;;5.90;;
14268;SDS011;7218;51.480;7.006;2023-04-25T04:44:03;19.58;;;6.75;;
14268;SDS011;7218;51.480;7.006;2023-04-25T04:46:31;16.42;;;6.15;;
14268;SDS011;7218;51.480;7.006;2023-04-25T04:49:04;18.30;;;6.55;;
14268;SDS011;7218;51.480;7.006;2023-04-25T04:51:30;16.95;;;5.90;;
14268;SDS011;7218;51.480;7.006;2023-04-25T04:53:58;17.35;;;6.70;;
14268;SDS011;7218;51.480;7.006;2023-04-25T04:56:27;15.43;;;6.43;;
14268;SDS011;7218;51.480;7.006;2023-04-25T04:58:54;16.52;;;6.50;;
14268;SDS011;7218;51.480;7.006;2023-04-25T05:01:21;17.20;;;6.25;;
14268;SDS011;7218;51.480;7.006;2023-04-25T05:03:48;15.32;;;6.47;;
14268;SDS011;7218;51.480;7.006;2023-04-25T05:06:16;17.20;;;6.47;;
14268;SDS011;7218;51.480;7.006;2023-04-25T05:08:42;14.15;;;6.22;;
14268;SDS011;7218;51.480;7.006;2023-04-25T05:11:09;13.88;;;6.18;;
14268;SDS011;7218;51.480;7.006;2023-04-25T05:13:36;19.65;;;6.72;;
14268;SDS011;7218;51.480;7.006;2023-04-25T05:16:02;16.52;;;6.72;;
14268;SDS011;7218;51.480;7.006;2023-04-25T05:18:29;15.73;;;5.93;;
14268;SDS011;7218;51.480;7.006;2023-04-25T05:20:56;13.15;;;5.70;;
14268;SDS011;7218;51.480;7.006;2023-04-25T05:23:24;16.05;;;6.03;;
14268;SDS011;7218;51.480;7.006;2023-04-25T05:25:50;13.15;;;5.78;;
14268;SDS011;7218;51.480;7.006;2023-04-25T05:28:16;16.67;;;6.00;;
14268;SDS011;7218;51.480;7.006;2023-04-25T05:30:43;18.15;;;5.57;;
14268;SDS011;7218;51.480;7.006;2023-04-25T05:33:09;16.13;;;5.78;;
14268;SDS011;7218;51.480;7.006;2023-04-25T05:35:36;14.55;;;5.80;;
14268;SDS011;7218;51.480;7.006;2023-04-25T05:38:02;16.48;;;5.57;;
14268;SDS011;7218;51.480;7.006;2023-04-25T05:40:30;16.60;;;6.43;;
14268;SDS011;7218;51.480;7.006;2023-04-25T05:42:56;21.65;;;6.13;;
14268;SDS011;7218;51.480;7.006;2023-04-25T05:45:23;17.42;;;5.75;;
14268;SDS011;7218;51.480;7.006;2023-04-25T05:47:49;16.67;;;5.57;;
14268;SDS011;7218;51.480;7.006;2023-04-25T05:50:16;16.50;;;5.82;;
14268;SDS011;7218;51.480;7.006;2023-04-25T05:52:42;18.08;;;5.57;;
14268;SDS011;7218;51.480;7.006;2023-04-25T05:55:09;14.85;;;5.47;;
14268;SDS011;7218;51.480;7.006;2023-04-25T05:57:36;11.30;;;5.43;;
14268;SDS011;7218;51.480;7.006;2023-04-25T06:00:06;15.50;;;5.65;;
14268;SDS011;7218;51.480;7.006;2023-04-25T06:02:34;15.98;;;5.88;;
14268;SDS011;7218;51.480;7.006;2023-04-25T06:05:00;19.42;;;5.45;;
14268;SDS011;7218;51.480;7.006;2023-04-25T06:07:28;15.82;;;5.38;;
14268;SDS011;7218;51.480;7.006;2023-04-25T06:09:54;16.88;;;5.63;;
14268;SDS011;7218;51.480;7.006;2023-04-25T06:12:21;14.13;;;5.35;;
14268;SDS011;7218;51.480;7.006;2023-04-25T06:14:49;16.35;;;5.38;;
14268;SDS011;7218;51.480;7.006;2023-04-25T06:17:15;14.68;;;5.43;;
14268;SDS011;7218;51.480;7.006;2023-04-25T06:19:41;14.93;;;5.57;;
14268;SDS011;7218;51.480;7.006;2023-04-25T06:22:08;13.63;;;4.82;;
14268;SDS011;7218;51.480;7.006;2023-04-25T06:24:34;14.02;;;4.68;;
14268;SDS011;7218;51.480;7.006;2023-04-25T06:27:01;11.77;;;4.25;;
14268;SDS011;7218;51.480;7.006;2023-04-25T06:29:27;14.00;;;4.57;;
14268;SDS011;7218;51.480;7.006;2023-04-25T06:31:55;14.45;;;4.78;;
14268;SDS011;7218;51.480;7.006;2023-04-25T06:34:22;15.02;;;4.80;;
14268;SDS011;7218;51.480;7.006;2023-04-25T06:36:49;15.00;;;4.20;;
14268;SDS011;7218;51.480;7.006;2023-04-25T06:39:15;11.85;;;4.50;;
14268;SDS011;7218;51.480;7.006;2023-04-25T06:41:41;12.52;;;4.03;;
14268;SDS011;7218;51.480;7.006;2023-04-25T06:44:08;13.05;;;3.50;;
14268;SDS011;7218;51.480;7.006;2023-04-25T06:46:35;14.15;;;4.07;;
14268;SDS011;7218;51.480;7.006;2023-04-25T06:49:03;11.07;;;4.00;;
14268;SDS011;7218;51.480;7.006;2023-04-25T06:51:30;12.60;;;3.78;;
14268;SDS011;7218;51.480;7.006;2023-04-25T06:53:56;12.52;;;3.42;;
14268;SDS011;7218;51.480;7.006;2023-04-25T06:56:23;10.02;;;2.65;;
14268;SDS011;7218;51.480;7.006;2023-04-25T06:58:50;10.25;;;3.03;;
14268;SDS011;7218;51.480;7.006;2023-04-25T07:01:16;6.40;;;2.67;;
14268;SDS011;7218;51.480;7.006;2023-04-25T07:03:42;6.93;;;2.60;;
14268;SDS011;7218;51.480;7.006;2023-04-25T07:06:10;10.93;;;2.45;;
14268;SDS011;7218;51.480;7.006;2023-04-25T07:08:37;7.18;;;2.42;;
14268;SDS011;7218;51.480;7.006;2023-04-25T07:11:03;7.30;;;2.35;;
14268;SDS011;7218;51.480;7.006;2023-04-25T07:13:30;10.25;;;2.70;;
14268;SDS011;7218;51.480;7.006;2023-04-25T07:15:56;9.10;;;2.92;;
14268;SDS011;7218;51.480;7.006;2023-04-25T07:18:23;10.52;;;2.75;;
14268;SDS011;7218;51.480;7.006;2023-04-25T07:20:49;10.65;;;2.92;;
14268;SDS011;7218;51.480;7.006;2023-04-25T07:23:17;8.77;;;2.67;;
14268;SDS011;7218;51.480;7.006;2023-04-25T07:25:43;8.88;;;2.80;;
14268;SDS011;7218;51.480;7.006;2023-04-25T07:28:10;9.10;;;2.72;;
14268;SDS011;7218;51.480;7.006;2023-04-25T07:30:36;8.70;;;2.50;;
14268;SDS011;7218;51.480;7.006;2023-04-25T07:33:06;10.85;;;3.22;;
14268;SDS011;7218;51.480;7.006;2023-04-25T07:35:32;7.30;;;2.60;;
14268;SDS011;7218;51.480;7.006;2023-04-25T07:37:59;7.10;;;2.17;;
14268;SDS011;7218;51.480;7.006;2023-04-25T07:40:27;11.02;;;2.60;;
14268;SDS011;7218;51.480;7.006;2023-04-25T07:42:53;10.00;;;2.90;;
14268;SDS011;7218;51.480;7.006;2023-04-25T07:45:20;7.82;;;2.75;;
14268;SDS011;7218;51.480;7.006;2023-04-25T07:47:46;7.03;;;2.20;;
14268;SDS011;7218;51.480;7.006;2023-04-25T07:50:13;7.90;;;2.10;;
14268;SDS011;7218;51.480;7.006;2023-04-25T07:52:39;6.93;;;2.20;;
14268;SDS011;7218;51.480;7.006;2023-04-25T07:55:06;9.50;;;2.17;;
14268;SDS011;7218;51.480;7.006;2023-04-25T07:57:34;8.48;;;2.40;;
14268;SDS011;7218;51.480;7.006;2023-04-25T08:00:00;7.43;;;2.40;;
14268;SDS011;7218;51.480;7.006;2023-04-25T08:02:27;9.80;;;2.10;;
14268;SDS011;7218;51.480;7.006;2023-04-25T08:04:53;9.38;;;2.35;;
14268;SDS011;7218;51.480;7.006;2023-04-25T08:07:20;10.38;;;2.25;;
14268;SDS011;7218;51.480;7.006;2023-04-25T08:09:46;11.02;;;2.40;;
14268;SDS011;7218;51.480;7.006;2023-04-25T08:12:13;8.88;;;2.33;;
14268;SDS011;7218;51.480;7.006;2023-04-25T08:14:40;11.13;;;2.60;;
14268;SDS011;7218;51.480;7.006;2023-04-25T08:17:07;9.18;;;2.65;;
14268;SDS011;7218;51.480;7.006;2023-04-25T08:19:33;6.60;;;2.03;;
14268;SDS011;7218;51.480;7.006;2023-04-25T08:22:00;8.30;;;2.45;;
14268;SDS011;7218;51.480;7.006;2023-04-25T08:24:27;11.27;;;2.42;;
14268;SDS011;7218;51.480;7.006;2023-04-25T08:26:53;13.02;;;2.42;;
14268;SDS011;7218;51.480;7.006;2023-04-25T08:29:19;7.15;;;2.45;;
14268;SDS011;7218;51.480;7.006;2023-04-25T08:31:49;9.05;;;2.45;;
14268;SDS011;7218;51.480;7.006;2023-04-25T08:34:17;11.80;;;2.50;;
14268;SDS011;7218;51.480;7.006;2023-04-25T08:36:44;10.95;;;2.30;;
14268;SDS011;7218;51.480;7.006;2023-04-25T08:39:10;9.45;;;2.53;;
14268;SDS011;7218;51.480;7.006;2023-04-25T08:41:38;8.20;;;2.47;;
14268;SDS011;7218;51.480;7.006;2023-04-25T08:44:06;10.93;;;2.30;;
14268;SDS011;7218;51.480;7.006;2023-04-25T08:46:34;9.00;;;2.50;;
14268;SDS011;7218;51.480;7.006;2023-04-25T08:49:04;9.38;;;2.33;;
14268;SDS011;7218;51.480;7.006;2023-04-25T08:51:31;12.38;;;2.63;;
14268;SDS011;7218;51.480;7.006;2023-04-25T08:54:06;13.05;;;2.28;;
14268;SDS011;7218;51.480;7.006;2023-04-25T08:56:35;9.48;;;2.33;;
14268;SDS011;7218;51.480;7.006;2023-04-25T08:59:02;6.97;;;2.00;;
14268;SDS011;7218;51.480;7.006;2023-04-25T09:01:28;8.18;;;2.10;;
14268;SDS011;7218;51.480;7.006;2023-04-25T09:03:55;6.13;;;1.92;;
14268;SDS011;7218;51.480;7.006;2023-04-25T09:06:24;6.65;;;2.05;;
14268;SDS011;7218;51.480;7.006;2023-04-25T09:08:52;5.80;;;2.15;;
14268;SDS011;7218;51.480;7.006;2023-04-25T09:11:19;8.23;;;2.10;;
14268;SDS011;7218;51.480;7.006;2023-04-25T09:13:45;9.38;;;2.45;;
14268;SDS011;7218;51.480;7.006;2023-04-25T09:16:12;7.80;;;2.10;;
14268;SDS011;7218;51.480;7.006;2023-04-25T09:18:42;7.00;;;1.85;;
14268;SDS011;7218;51.480;7.006;2023-04-25T09:21:09;6.65;;;1.95;;
14268;SDS011;7218;51.480;7.006;2023-04-25T09:23:41;8.10;;;2.15;;
14268;SDS011;7218;51.480;7.006;2023-04-25T09:26:09;12.30;;;2.70;;
14268;SDS011;7218;51.480;7.006;2023-04-25T09:28:39;6.05;;;2.00;;
14268;SDS011;7218;51.480;7.006;2023-04-25T09:31:09;5.93;;;1.63;;
14268;SDS011;7218;51.480;7.006;2023-04-25T09:33:36;7.63;;;1.80;;
14268;SDS011;7218;51.480;7.006;2023-04-25T09:36:03;4.57;;;1.75;;
14268;SDS011;7218;51.480;7.006;2023-04-25T09:38:31;6.55;;;2.35;;
14268;SDS011;7218;51.480;7.006;2023-04-25T09:40:59;8.00;;;2.10;;
14268;SDS011;7218;51.480;7.006;2023-04-25T09:43:26;4.78;;;1.63;;
14268;SDS011;7218;51.480;7.006;2023-04-25T09:45:54;5.03;;;1.83;;
14268;SDS011;7218;51.480;7.006;2023-04-25T09:48:24;6.65;;;1.80;;
14268;SDS011;7218;51.480;7.006;2023-04-25T09:51:03;5.38;;;1.88;;
14268;SDS011;7218;51.480;7.006;2023-04-25T09:53:30;5.63;;;1.95;;
14268;SDS011;7218;51.480;7.006;2023-04-25T09:55:59;6.30;;;1.92;;
14268;SDS011;7218;51.480;7.006;2023-04-25T09:58:26;3.92;;;1.50;;
14268;SDS011;7218;51.480;7.006;2023-04-25T10:00:55;9.73;;;1.65;;
14268;SDS011;7218;51.480;7.006;2023-04-25T10:03:26;7.03;;;1.75;;
14268;SDS011;7218;51.480;7.006;2023-04-25T10:05:52;6.97;;;1.60;;
14268;SDS011;7218;51.480;7.006;2023-04-25T10:08:20;5.05;;;1.70;;
14268;SDS011;7218;51.480;7.006;2023-04-25T10:10:48;6.93;;;1.52;;
14268;SDS011;7218;51.480;7.006;2023-04-25T10:13:17;7.20;;;1.60;;
14268;SDS011;7218;51.480;7.006;2023-04-25T10:15:44;4.60;;;1.48;;
14268;SDS011;7218;51.480;7.006;2023-04-25T10:18:12;5.45;;;1.40;;
14268;SDS011;7218;51.480;7.006;2023-04-25T10:20:40;5.15;;;1.42;;
14268;SDS011;7218;51.480;7.006;2023-04-25T10:23:06;7.18;;;1.70;;
14268;SDS011;7218;51.480;7.006;2023-04-25T10:25:37;6.13;;;1.70;;
14268;SDS011;7218;51.480;7.006;2023-04-25T10:28:05;5.10;;;1.42;;
14268;SDS011;7218;51.480;7.006;2023-04-25T10:30:33;4.00;;;1.50;;
14268;SDS011;7218;51.480;7.006;2023-04-25T10:32:59;3.78;;;1.30;;
14268;SDS011;7218;51.480;7.006;2023-04-25T10:35:27;10.95;;;2.33;;
14268;SDS011;7218;51.480;7.006;2023-04-25T10:37:57;7.40;;;1.92;;
14268;SDS011;7218;51.480;7.006;2023-04-25T10:40:25;10.27;;;2.33;;
14268;SDS011;7218;51.480;7.006;2023-04-25T10:42:52;7.00;;;1.90;;
14268;SDS011;7218;51.480;7.006;2023-04-25T10:45:19;5.45;;;1.60;;
14268;SDS011;7218;51.480;7.006;2023-04-25T10:47:47;7.78;;;1.77;;
14268;SDS011;7218;51.480;7.006;2023-04-25T10:50:14;5.10;;;1.60;;
14268;SDS011;7218;51.480;7.006;2023-04-25T10:52:41;6.40;;;1.35;;
14268;SDS011;7218;51.480;7.006;2023-04-25T10:55:09;5.78;;;1.50;;
14268;SDS011;7218;51.480;7.006;2023-04-25T10:57:36;5.88;;;1.90;;
14268;SDS011;7218;51.480;7.006;2023-04-25T11:00:07;7.82;;;2.08;;
14268;SDS011;7218;51.480;7.006;2023-04-25T11:02:37;5.53;;;1.77;;
14268;SDS011;7218;51.480;7.006;2023-04-25T11:05:08;3.75;;;1.58;;
14268;SDS011;7218;51.480;7.006;2023-04-25T11:07:37;6.93;;;1.80;;
14268;SDS011;7218;51.480;7.006;2023-04-25T11:10:10;6.18;;;1.80;;
14268;SDS011;7218;51.480;7.006;2023-04-25T11:12:36;5.47;;;1.52;;
14268;SDS011;7218;51.480;7.006;2023-04-25T11:15:04;5.25;;;1.98;;
14268;SDS011;7218;51.480;7.006;2023-04-25T11:17:32;6.30;;;1.98;;
14268;SDS011;7218;51.480;7.006;2023-04-25T11:19:59;7.00;;;2.15;;
14268;SDS011;7218;51.480;7.006;2023-04-25T11:22:29;6.13;;;2.10;;
14268;SDS011;7218;51.480;7.006;2023-04-25T11:24:55;7.30;;;2.15;;
14268;SDS011;7218;51.480;7.006;2023-04-25T11:27:21;5.90;;;2.25;;
14268;SDS011;7218;51.480;7.006;2023-04-25T11:29:49;5.82;;;1.77;;
14268;SDS011;7218;51.480;7.006;2023-04-25T11:32:17;5.15;;;1.85;;
14268;SDS011;7218;51.480;7.006;2023-04-25T11:34:44;4.03;;;1.60;;
14268;SDS011;7218;51.480;7.006;2023-04-25T11:37:11;6.25;;;1.60;;
14268;SDS011;7218;51.480;7.006;2023-04-25T11:39:39;3.47;;;1.45;;
14268;SDS011;7218;51.480;7.006;2023-04-25T11:42:09;4.50;;;1.38;;
14268;SDS011;7218;51.480;7.006;2023-04-25T11:44:37;3.20;;;1.40;;
14268;SDS011;7218;51.480;7.006;2023-04-25T11:47:04;3.85;;;1.63;;
14268;SDS011;7218;51.480;7.006;2023-04-25T11:49:30;4.25;;;1.17;;
14268;SDS011;7218;51.480;7.006;2023-04-25T11:51:57;3.17;;;1.40;;
14268;SDS011;7218;51.480;7.006;2023-04-25T11:54:24;5.28;;;1.52;;
14268;SDS011;7218;51.480;7.006;2023-04-25T11:56:52;4.22;;;1.60;;
14268;SDS011;7218;51.480;7.006;2023-04-25T11:59:22;4.25;;;1.48;;
14268;SDS011;7218;51.480;7.006;2023-04-25T12:01:50;6.30;;;1.73;;
14268;SDS011;7218;51.480;7.006;2023-04-25T12:04:17;5.72;;;1.67;;
14268;SDS011;7218;51.480;7.006;2023-04-25T12:06:45;3.83;;;1.50;;
14268;SDS011;7218;51.480;7.006;2023-04-25T12:09:12;6.10;;;1.55;;
14268;SDS011;7218;51.480;7.006;2023-04-25T12:11:41;3.25;;;1.30;;
14268;SDS011;7218;51.480;7.006;2023-04-25T12:14:09;5.50;;;1.65;;
14268;SDS011;7218;51.480;7.006;2023-04-25T12:16:40;4.35;;;1.50;;
14268;SDS011;7218;51.480;7.006;2023-04-25T12:19:07;3.75;;;1.50;;
14268;SDS011;7218;51.480;7.006;2023-04-25T12:21:34;5.63;;;1.67;;
14268;SDS011;7218;51.480;7.006;2023-04-25T12:24:10;5.40;;;1.95;;
14268;SDS011;7218;51.480;7.006;2023-04-25T12:26:46;6.65;;;2.10;;
14268;SDS011;7218;51.480;7.006;2023-04-25T12:29:18;5.93;;;2.67;;
14268;SDS011;7218;51.480;7.006;2023-04-25T12:31:46;6.90;;;2.88;;
14268;SDS011;7218;51.480;7.006;2023-04-25T12:34:13;5.60;;;1.77;;
14268;SDS011;7218;51.480;7.006;2023-04-25T12:36:40;6.30;;;2.03;;
14268;SDS011;7218;51.480;7.006;2023-04-25T12:39:06;4.60;;;1.80;;
14268;SDS011;7218;51.480;7.006;2023-04-25T12:41:33;3.88;;;1.88;;
14268;SDS011;7218;51.480;7.006;2023-04-25T12:44:00;6.60;;;2.10;;
14268;SDS011;7218;51.480;7.006;2023-04-25T12:46:27;5.28;;;1.48;;
14268;SDS011;7218;51.480;7.006;2023-04-25T12:48:54;5.00;;;1.88;;
14268;SDS011;7218;51.480;7.006;2023-04-25T12:51:21;3.85;;;1.50;;
14268;SDS011;7218;51.480;7.006;2023-04-25T12:53:50;6.00;;;1.52;;
14268;SDS011;7218;51.480;7.006;2023-04-25T12:56:17;4.20;;;1.65;;
14268;SDS011;7218;51.480;7.006;2023-04-25T12:58:44;4.80;;;1.73;;
14268;SDS011;7218;51.480;7.006;2023-04-25T13:01:10;4.38;;;1.38;;
14268;SDS011;7218;51.480;7.006;2023-04-25T13:03:40;4.28;;;1.17;;
14268;SDS011;7218;51.480;7.006;2023-04-25T13:06:06;4.45;;;1.40;;
14268;SDS011;7218;51.480;7.006;2023-04-25T13:08:33;4.07;;;1.10;;
14268;SDS011;7218;51.480;7.006;2023-04-25T13:11:01;4.05;;;1.40;;
14268;SDS011;7218;51.480;7.006;2023-04-25T13:13:28;3.88;;;1.50;;
14268;SDS011;7218;51.480;7.006;2023-04-25T13:15:56;4.75;;;1.65;;
14268;SDS011;7218;51.480;7.006;2023-04-25T13:18:23;3.25;;;1.50;;
14268;SDS011;7218;51.480;7.006;2023-04-25T13:20:52;3.13;;;1.42;;
14268;SDS011;7218;51.480;7.006;2023-04-25T13:23:19;4.65;;;1.50;;
14268;SDS011;7218;51.480;7.006;2023-04-25T13:25:46;4.85;;;1.60;;
14268;SDS011;7218;51.480;7.006;2023-04-25T13:28:13;5.50;;;1.83;;
14268;SDS011;7218;51.480;7.006;2023-04-25T13:30:41;4.65;;;1.80;;
14268;SDS011;7218;51.480;7.006;2023-04-25T13:33:07;4.15;;;1.40;;
14268;SDS011;7218;51.480;7.006;2023-04-25T13:35:35;4.03;;;1.30;;
14268;SDS011;7218;51.480;7.006;2023-04-25T13:38:04;3.28;;;1.45;;
14268;SDS011;7218;51.480;7.006;2023-04-25T13:40:31;4.80;;;1.50;;
14268;SDS011;7218;51.480;7.006;2023-04-25T13:42:58;5.05;;;1.52;;
14268;SDS011;7218;51.480;7.006;2023-04-25T13:45:24;5.07;;;1.42;;
14268;SDS011;7218;51.480;7.006;2023-04-25T13:47:51;3.35;;;1.30;;
14268;SDS011;7218;51.480;7.006;2023-04-25T13:50:17;4.53;;;1.40;;
14268;SDS011;7218;51.480;7.006;2023-04-25T13:52:44;3.72;;;1.60;;
14268;SDS011;7218;51.480;7.006;2023-04-25T13:55:12;4.15;;;1.33;;
14268;SDS011;7218;51.480;7.006;2023-04-25T13:57:38;2.53;;;1.23;;
14268;SDS011;7218;51.480;7.006;2023-04-25T14:00:05;3.10;;;1.30;;
14268;SDS011;7218;51.480;7.006;2023-04-25T14:02:35;3.80;;;1.38;;
14268;SDS011;7218;51.480;7.006;2023-04-25T14:05:01;7.00;;;1.40;;
14268;SDS011;7218;51.480;7.006;2023-04-25T14:07:28;3.72;;;1.40;;
14268;SDS011;7218;51.480;7.006;2023-04-25T14:09:55;4.20;;;1.20;;
14268;SDS011;7218;51.480;7.006;2023-04-25T14:12:23;1.40;;;1.08;;
14268;SDS011;7218;51.480;7.006;2023-04-25T14:14:50;2.63;;;1.30;;
14268;SDS011;7218;51.480;7.006;2023-04-25T14:17:17;3.50;;;1.00;;
14268;SDS011;7218;51.480;7.006;2023-04-25T14:19:44;2.70;;;1.30;;
14268;SDS011;7218;51.480;7.006;2023-04-25T14:22:13;3.40;;;0.98;;
14268;SDS011;7218;51.480;7.006;2023-04-25T14:24:39;3.53;;;1.10;;
14268;SDS011;7218;51.480;7.006;2023-04-25T14:27:06;3.08;;;1.02;;
14268;SDS011;7218;51.480;7.006;2023-04-25T14:29:34;3.35;;;1.02;;
14268;SDS011;7218;51.480;7.006;2023-04-25T14:32:02;2.97;;;1.00;;
14268;SDS011;7218;51.480;7.006;2023-04-25T14:34:30;3.08;;;1.17;;
14268;SDS011;7218;51.480;7.006;2023-04-25T14:36:56;3.20;;;1.23;;
14268;SDS011;7218;51.480;7.006;2023-04-25T14:39:23;2.67;;;1.10;;
14268;SDS011;7218;51.480;7.006;2023-04-25T14:41:49;1.73;;;1.10;;
14268;SDS011;7218;51.480;7.006;2023-04-25T14:44:15;2.72;;;1.10;;
14268;SDS011;7218;51.480;7.006;2023-04-25T14:46:44;2.47;;;1.20;;
14268;SDS011;7218;51.480;7.006;2023-04-25T14:49:10;2.58;;;1.05;;
14268;SDS011;7218;51.480;7.006;2023-04-25T14:51:37;4.53;;;1.30;;
14268;SDS011;7218;51.480;7.006;2023-04-25T14:54:03;3.33;;;1.30;;
14268;SDS011;7218;51.480;7.006;2023-04-25T14:56:30;2.90;;;1.55;;